createdAt,value
2019-01-17T00:00:51.000Z,96.16
2019-01-17T00:03:51.620Z,96.13
2019-01-17T00:06:48.956Z,96.02
2019-01-17T00:09:33.217Z,96.29
2019-01-17T00:12:24.640Z,96.28
2019-01-17T00:15:21.867Z,96.70
2019-01-17T00:18:25.616Z,97.06
2019-01-17T00:21:14.117Z,97.58
2019-01-17T00:24:02.764Z,97.17
2019-01-17T00:26:51.413Z,97.59
2019-01-17T00:29:45.820Z,97.52
2019-01-17T00:32:32.925Z,98.18
2019-01-17T00:35:14.890Z,98.32
2019-01-17T00:38:02.431Z,98.16
2019-01-17T00:40:49.793Z,97.93
2019-01-17T00:43:47.140Z,98.43
2019-01-17T00:46:41.897Z,98.13
2019-01-17T00:49:36.503Z,98.18
2019-01-17T00:52:27.816Z,98.07
2019-01-17T00:55:15.147Z,98.70
2019-01-17T00:58:00.426Z,98.01
2019-01-17T01:00:49.230Z,97.87
2019-01-17T01:03:40.925Z,98.72
2019-01-17T01:06:31.791Z,98.86
2019-01-17T01:09:19.078Z,98.51
2019-01-17T01:12:13.629Z,99.25
2019-01-17T01:14:58.653Z,98.65
2019-01-17T01:17:37.801Z,98.49
2019-01-17T01:20:35.638Z,99.42
2019-01-17T01:23:23.308Z,99.18
2019-01-17T01:26:10.574Z,99.27
2019-01-17T01:29:02.089Z,99.30
2019-01-17T01:31:43.611Z,99.44
2019-01-17T01:34:33.859Z,99.84
2019-01-17T01:37:20.911Z,99.18
2019-01-17T01:40:03.146Z,99.68
2019-01-17T01:42:57.859Z,99.50
2019-01-17T01:45:53.208Z,99.70
2019-01-17T01:48:40.399Z,99.25
2019-01-17T01:51:47.302Z,99.60
2019-01-17T01:54:21.985Z,99.41
2019-01-17T01:56:48.281Z,99.31
2019-01-17T01:59:18.048Z,97.92
2019-01-17T02:01:47.651Z,98.04
2019-01-17T02:04:17.225Z,97.00
2019-01-17T02:06:48.852Z,96.59
2019-01-17T02:09:18.561Z,96.91
2019-01-17T02:11:48.081Z,97.61
2019-01-17T02:14:18.896Z,97.78
2019-01-17T02:16:48.570Z,97.49
2019-01-17T02:19:18.200Z,98.05
2019-01-17T02:21:47.718Z,97.78
2019-01-17T02:24:17.368Z,96.94
2019-01-17T02:26:46.808Z,97.40
2019-01-17T02:29:16.357Z,97.87
2019-01-17T02:31:45.933Z,97.44
2019-01-17T02:34:15.443Z,97.63
2019-01-17T02:36:44.978Z,97.62
2019-01-17T02:39:14.594Z,97.68
2019-01-17T02:41:44.152Z,97.66
2019-01-17T02:44:13.708Z,97.89
2019-01-17T02:46:43.171Z,97.91
2019-01-17T02:49:12.945Z,97.97
2019-01-17T02:51:42.511Z,97.96
2019-01-17T02:54:12.080Z,98.03
2019-01-17T02:56:41.557Z,98.00
2019-01-17T02:59:11.049Z,98.10
2019-01-17T03:01:40.823Z,98.17
2019-01-17T03:04:10.478Z,98.18
2019-01-17T03:06:40.920Z,98.00
2019-01-17T03:09:10.558Z,98.10
2019-01-17T03:11:40.087Z,98.15
2019-01-17T03:14:09.709Z,98.20
2019-01-17T03:16:39.445Z,98.19
2019-01-17T03:19:09.391Z,98.26
2019-01-17T03:21:38.954Z,98.33
2019-01-17T03:24:08.543Z,98.25
2019-01-17T03:26:38.069Z,98.30
2019-01-17T03:29:07.858Z,98.36
2019-01-17T03:31:37.415Z,98.06
2019-01-17T03:34:06.977Z,98.29
2019-01-17T03:36:36.713Z,97.96
2019-01-17T03:39:08.167Z,98.12
2019-01-17T03:41:37.756Z,98.40
2019-01-17T03:44:07.260Z,97.76
2019-01-17T03:46:36.924Z,97.92
2019-01-17T03:49:06.484Z,97.16
2019-01-17T03:51:36.020Z,96.64
2019-01-17T03:54:06.042Z,96.59
2019-01-17T03:56:35.711Z,96.45
2019-01-17T03:59:05.432Z,96.80
2019-01-17T04:01:39.056Z,96.83
2019-01-17T04:04:08.548Z,96.77
2019-01-17T04:06:38.031Z,96.63
2019-01-17T04:09:08.420Z,96.41
2019-01-17T04:11:38.050Z,96.17
2019-01-17T04:14:07.647Z,95.98
2019-01-17T04:16:37.230Z,95.75
2019-01-17T04:19:06.876Z,95.78
2019-01-17T04:21:36.543Z,96.01
2019-01-17T04:24:06.142Z,95.89
2019-01-17T04:26:35.756Z,95.67
2019-01-17T04:29:05.493Z,95.38
2019-01-17T04:31:34.981Z,95.32
2019-01-17T04:34:04.533Z,95.16
2019-01-17T04:36:34.131Z,95.28
2019-01-17T04:39:04.094Z,95.51
2019-01-17T04:41:33.721Z,95.79
2019-01-17T04:44:03.270Z,95.77
2019-01-17T04:46:32.749Z,95.91
2019-01-17T04:49:02.280Z,96.30
2019-01-17T04:51:31.859Z,96.12
2019-01-17T04:54:06.346Z,96.46
2019-01-17T04:56:38.340Z,96.74
2019-01-17T04:59:07.943Z,96.54
2019-01-17T05:01:37.514Z,96.65
2019-01-17T05:04:07.085Z,96.73
2019-01-17T05:06:36.559Z,96.58
2019-01-17T05:09:08.605Z,96.59
2019-01-17T05:11:38.283Z,96.73
2019-01-17T05:14:07.958Z,96.61
2019-01-17T05:16:37.426Z,96.87
2019-01-17T05:19:06.948Z,96.62
2019-01-17T05:21:36.465Z,96.33
2019-01-17T05:24:06.167Z,96.32
2019-01-17T05:26:35.861Z,96.39
2019-01-17T05:29:05.541Z,96.01
2019-01-17T05:31:35.042Z,95.97
2019-01-17T05:34:04.778Z,95.82
2019-01-17T05:36:34.274Z,95.82
2019-01-17T05:39:05.459Z,95.03
2019-01-17T05:41:35.071Z,95.59
2019-01-17T05:44:04.721Z,95.12
2019-01-17T05:46:34.343Z,95.28
2019-01-17T05:49:04.017Z,95.30
2019-01-17T05:51:33.554Z,95.25
2019-01-17T05:54:03.063Z,94.24
2019-01-17T05:56:32.871Z,94.17
2019-01-17T05:59:04.617Z,94.53
2019-01-17T06:01:34.460Z,94.74
2019-01-17T06:04:04.028Z,94.75
2019-01-17T06:06:33.593Z,94.67
2019-01-17T06:09:05.109Z,94.52
2019-01-17T06:11:34.732Z,94.15
2019-01-17T06:14:04.542Z,93.78
2019-01-17T06:16:34.204Z,94.16
2019-01-17T06:19:03.780Z,93.93
2019-01-17T06:21:33.458Z,93.93
2019-01-17T06:24:03.167Z,94.17
2019-01-17T06:26:32.922Z,94.23
2019-01-17T06:29:04.018Z,94.20
2019-01-17T06:31:33.674Z,94.10
2019-01-17T06:34:03.183Z,94.25
2019-01-17T06:36:32.874Z,94.10
2019-01-17T06:39:02.396Z,94.09
2019-01-17T06:41:31.981Z,93.72
2019-01-17T06:44:01.614Z,93.43
2019-01-17T06:46:31.270Z,93.35
2019-01-17T06:49:00.984Z,93.64
2019-01-17T06:51:30.682Z,93.74
2019-01-17T06:54:00.194Z,93.42
2019-01-17T06:56:29.926Z,93.23
2019-01-17T06:58:59.571Z,93.58
2019-01-17T07:01:30.153Z,94.02
2019-01-17T07:03:59.879Z,93.91
2019-01-17T07:06:29.455Z,93.77
2019-01-17T07:08:59.018Z,93.71
2019-01-17T07:11:28.727Z,93.91
2019-01-17T07:13:58.246Z,93.56
2019-01-17T07:16:27.846Z,93.34
2019-01-17T07:18:57.382Z,93.13
2019-01-17T07:21:27.666Z,92.87
2019-01-17T07:23:57.203Z,92.93
2019-01-17T07:26:26.813Z,92.87
2019-01-17T07:28:56.439Z,93.04
2019-01-17T07:31:26.065Z,93.24
2019-01-17T07:33:55.817Z,93.57
2019-01-17T07:36:26.000Z,93.60
2019-01-17T07:38:55.732Z,93.58
2019-01-17T07:41:25.265Z,94.47
2019-01-17T07:43:54.807Z,94.98
2019-01-17T07:46:24.480Z,94.65
2019-01-17T07:48:54.186Z,94.46
2019-01-17T07:51:23.839Z,93.54
2019-01-17T07:53:53.396Z,93.39
2019-01-17T07:56:22.975Z,92.97
2019-01-17T07:58:52.716Z,93.11
2019-01-17T08:01:22.336Z,92.47
2019-01-17T08:03:53.006Z,92.00
2019-01-17T08:06:22.643Z,92.17
2019-01-17T08:08:52.284Z,92.22
2019-01-17T08:11:21.829Z,91.97
2019-01-17T08:13:51.418Z,91.64
2019-01-17T08:16:20.975Z,91.13
2019-01-17T08:18:50.577Z,90.88
2019-01-17T08:21:20.357Z,90.60
2019-01-17T08:23:49.916Z,91.01
2019-01-17T08:26:19.472Z,91.29
2019-01-17T08:28:49.124Z,91.23
2019-01-17T08:31:18.764Z,89.73
2019-01-17T08:33:48.282Z,89.97
2019-01-17T08:36:17.911Z,90.93
2019-01-17T08:38:47.537Z,91.04
2019-01-17T08:41:17.290Z,90.92
2019-01-17T08:43:47.007Z,90.54
2019-01-17T08:46:16.685Z,90.32
2019-01-17T08:48:46.158Z,90.10
2019-01-17T08:51:17.021Z,90.20
2019-01-17T08:53:46.965Z,90.27
2019-01-17T08:56:16.796Z,90.37
2019-01-17T08:58:46.274Z,89.83
2019-01-17T09:01:19.040Z,90.61
2019-01-17T09:04:06.593Z,91.07
2019-01-17T09:06:36.874Z,91.68
2019-01-17T09:09:09.872Z,90.24
2019-01-17T09:11:39.810Z,90.20
2019-01-17T09:14:14.301Z,89.44
2019-01-17T09:16:49.481Z,88.86
2019-01-17T09:19:20.441Z,89.02
2019-01-17T09:22:01.313Z,88.47
2019-01-17T09:24:31.908Z,88.64
2019-01-17T09:27:02.190Z,89.11
2019-01-17T09:29:32.042Z,88.06
2019-01-17T09:32:02.084Z,87.74
2019-01-17T09:34:31.663Z,86.81
2019-01-17T09:37:34.800Z,85.84
2019-01-17T09:40:15.018Z,85.98
2019-01-17T09:42:45.314Z,85.60
2019-01-17T09:45:26.598Z,85.50
2019-01-17T09:49:06.007Z,85.13
2019-01-17T09:51:38.041Z,84.77
2019-01-17T09:54:08.306Z,84.84
2019-01-17T09:57:16.150Z,85.84
2019-01-17T10:00:08.916Z,83.81
2019-01-17T10:02:49.361Z,84.41
2019-01-17T10:05:46.491Z,85.66
2019-01-17T10:08:56.262Z,85.69
2019-01-17T10:11:50.305Z,85.18
2019-01-17T10:14:42.250Z,84.86
2019-01-17T10:18:08.376Z,86.04
2019-01-17T10:25:06.377Z,86.16
2019-01-17T10:28:25.717Z,85.69
2019-01-17T10:31:40.241Z,86.29
2019-01-17T10:38:04.628Z,87.96
2019-01-17T10:41:10.203Z,87.46
2019-01-17T10:44:39.366Z,87.68
2019-01-17T10:55:11.180Z,90.83
2019-01-17T10:58:20.421Z,91.56
2019-01-17T11:01:47.330Z,93.13
2019-01-17T11:04:49.589Z,91.82
2019-01-17T11:07:50.786Z,91.35
2019-01-17T11:10:52.377Z,92.34
2019-01-17T11:14:14.024Z,92.06
2019-01-17T11:17:52.102Z,92.56
2019-01-17T11:20:49.585Z,93.24
2019-01-17T11:23:49.807Z,93.93
2019-01-17T11:27:13.482Z,94.59
2019-01-17T11:30:36.636Z,95.23
2019-01-17T11:33:19.654Z,95.21
2019-01-17T11:36:35.696Z,95.97
2019-01-17T11:39:29.883Z,96.30
2019-01-17T11:42:17.624Z,97.11
2019-01-17T11:44:55.651Z,96.76
2019-01-17T11:48:18.759Z,95.98
2019-01-17T11:51:34.910Z,96.36
2019-01-17T11:54:24.188Z,97.38
2019-01-17T11:57:37.352Z,97.72
2019-01-17T12:04:52.974Z,97.65
2019-01-17T12:08:13.455Z,98.08
2019-01-17T12:10:51.918Z,98.18
2019-01-17T12:13:24.213Z,99.19
2019-01-17T12:16:16.398Z,99.01
2019-01-17T12:19:51.171Z,99.29
2019-01-17T12:22:27.743Z,99.47
2019-01-17T12:25:00.024Z,99.17
2019-01-17T12:27:42.365Z,98.33
2019-01-17T12:30:11.654Z,98.19
2019-01-17T12:32:41.355Z,98.43
2019-01-17T12:35:12.252Z,98.63
2019-01-17T12:37:51.170Z,98.21
2019-01-17T12:40:22.781Z,97.43
2019-01-17T12:42:52.561Z,98.03
2019-01-17T12:45:22.204Z,98.41
2019-01-17T12:47:51.850Z,98.07
2019-01-17T12:50:21.525Z,97.98
2019-01-17T12:52:51.185Z,98.39
2019-01-17T12:55:20.781Z,98.96
2019-01-17T12:57:50.466Z,99.19
2019-01-17T13:00:22.389Z,98.99
2019-01-17T13:02:53.336Z,98.19
2019-01-17T13:05:24.003Z,98.57
2019-01-17T13:08:00.206Z,98.31
2019-01-17T13:10:30.756Z,98.64
2019-01-17T13:13:00.249Z,98.79
2019-01-17T13:15:30.889Z,99.07
2019-01-17T13:18:00.556Z,99.27
2019-01-17T13:20:35.328Z,99.23
2019-01-17T13:23:05.184Z,99.64
2019-01-17T13:25:38.236Z,99.95
2019-01-17T13:28:08.776Z,99.20
2019-01-17T13:30:38.622Z,99.48
2019-01-17T13:33:08.421Z,98.59
2019-01-17T13:35:37.926Z,99.06
2019-01-17T13:38:07.635Z,98.58
2019-01-17T13:40:37.262Z,98.51
2019-01-17T13:43:08.263Z,99.22
2019-01-17T13:45:37.940Z,98.80
2019-01-17T13:48:08.474Z,98.33
2019-01-17T13:50:38.775Z,98.89
2019-01-17T13:53:08.394Z,98.90
2019-01-17T13:55:38.033Z,98.91
2019-01-17T13:58:07.740Z,99.47
2019-01-17T14:00:38.358Z,98.48
2019-01-17T14:03:08.027Z,99.21
2019-01-17T14:05:37.620Z,98.98
2019-01-17T14:08:07.244Z,99.66
2019-01-17T14:10:36.885Z,99.69
2019-01-17T14:13:06.529Z,99.49
2019-01-17T14:15:37.116Z,99.83
2019-01-17T14:18:10.120Z,99.73
2019-01-17T14:20:40.429Z,99.24
2019-01-17T14:23:09.902Z,99.47
2019-01-17T14:25:39.555Z,99.81
2019-01-17T14:28:09.190Z,98.02
2019-01-17T14:30:40.092Z,93.83
2019-01-17T14:33:09.718Z,87.34
2019-01-17T14:35:39.485Z,84.30
2019-01-17T14:38:09.540Z,83.06
2019-01-17T14:40:39.243Z,81.05
2019-01-17T14:43:11.872Z,83.37
2019-01-17T14:45:41.428Z,87.25
2019-01-17T14:48:11.171Z,89.04
2019-01-17T14:50:40.956Z,89.61
2019-01-17T14:53:11.200Z,90.00
2019-01-17T14:55:40.715Z,90.87
2019-01-17T14:58:10.319Z,91.39
2019-01-17T15:00:40.957Z,92.02
2019-01-17T15:03:10.722Z,92.40
2019-01-17T15:05:40.309Z,92.71
2019-01-17T15:08:09.874Z,93.69
2019-01-17T15:10:41.302Z,93.44
2019-01-17T15:13:10.825Z,93.88
2019-01-17T15:15:40.411Z,94.14
2019-01-17T15:18:10.964Z,95.56
2019-01-17T15:20:40.662Z,96.64
2019-01-17T15:23:11.479Z,96.85
2019-01-17T15:25:42.006Z,97.44
2019-01-17T15:28:11.594Z,97.53
2019-01-17T15:30:41.153Z,97.95
2019-01-17T15:33:10.979Z,97.42
2019-01-17T15:35:41.581Z,97.92
2019-01-17T15:38:11.816Z,97.95
2019-01-17T15:40:41.328Z,97.25
2019-01-17T15:43:12.112Z,97.14
2019-01-17T15:45:41.699Z,97.32
2019-01-17T15:48:11.440Z,97.26
2019-01-17T15:50:41.497Z,97.89
2019-01-17T15:53:11.101Z,97.67
2019-01-17T15:55:40.722Z,97.62
2019-01-17T15:58:10.499Z,97.96
2019-01-17T16:01:11.180Z,98.47
2019-01-17T16:03:41.240Z,98.71
2019-01-17T16:06:10.865Z,99.35
2019-01-17T16:08:40.558Z,98.86
2019-01-17T16:11:10.113Z,99.00
2019-01-17T16:13:39.683Z,98.66
2019-01-17T16:16:09.853Z,99.09
2019-01-17T16:18:39.549Z,99.01
2019-01-17T16:21:09.103Z,98.27
2019-01-17T16:23:38.655Z,98.30
2019-01-17T16:26:08.192Z,97.74
2019-01-17T16:28:38.895Z,97.43
2019-01-17T16:31:08.931Z,97.92
2019-01-17T16:33:38.676Z,98.77
2019-01-17T16:36:08.338Z,98.79
2019-01-17T16:38:37.946Z,98.96
2019-01-17T16:41:18.763Z,99.36
2019-01-17T17:01:51.416Z,100.00
2019-01-17T17:04:21.912Z,100.00
2019-01-17T17:06:51.587Z,100.00
2019-01-17T17:09:24.725Z,100.00
2019-01-17T17:11:58.412Z,100.00
2019-01-17T17:14:46.896Z,100.00
2019-01-17T17:20:08.664Z,100.00
2019-01-17T17:22:54.843Z,100.00
2019-01-17T17:25:28.841Z,100.00
2019-01-17T17:28:07.232Z,100.00
2019-01-17T17:34:35.773Z,100.00
2019-01-17T17:37:29.601Z,100.00
2019-01-17T17:40:25.442Z,100.00
2019-01-17T17:43:09.314Z,100.00
2019-01-17T17:45:39.264Z,100.00
2019-01-17T17:48:09.629Z,100.00
2019-01-17T17:50:39.375Z,100.00
2019-01-17T17:53:11.375Z,99.87
2019-01-17T17:55:41.662Z,99.72
2019-01-17T17:58:13.402Z,99.29
2019-01-17T18:01:11.134Z,98.98
2019-01-17T18:03:50.173Z,98.67
2019-01-17T18:06:20.175Z,98.06
2019-01-17T18:08:49.801Z,97.67
2019-01-17T18:11:21.395Z,97.79
2019-01-17T18:14:05.523Z,97.77
2019-01-17T18:16:36.078Z,97.98
2019-01-17T18:19:06.449Z,97.90
2019-01-17T18:21:40.419Z,98.16
2019-01-17T18:24:10.399Z,98.13
2019-01-17T18:26:41.541Z,98.31
2019-01-17T18:29:11.301Z,98.27
2019-01-17T18:31:47.636Z,97.72
2019-01-17T18:34:17.496Z,98.10
2019-01-17T18:36:47.517Z,98.04
2019-01-17T18:39:17.566Z,98.45
2019-01-17T18:41:47.424Z,98.73
2019-01-17T18:44:17.403Z,98.78
2019-01-17T18:46:47.521Z,98.84
2019-01-17T18:49:17.374Z,98.91
2019-01-17T18:51:54.063Z,98.97
2019-01-17T18:54:24.160Z,99.09
2019-01-17T18:56:54.242Z,98.84
2019-01-17T18:59:24.396Z,98.04
2019-01-17T19:01:54.565Z,97.60
2019-01-17T19:04:24.534Z,97.88
2019-01-17T19:06:54.673Z,98.07
2019-01-17T19:09:24.768Z,98.45
2019-01-17T19:11:55.318Z,98.81
2019-01-17T19:14:25.282Z,98.70
2019-01-17T19:16:55.546Z,98.62
2019-01-17T19:19:25.738Z,98.40
2019-01-17T19:21:55.817Z,98.73
2019-01-17T19:24:25.900Z,98.53
2019-01-17T19:26:55.985Z,98.58
2019-01-17T19:29:26.138Z,98.91
2019-01-17T19:31:56.097Z,98.87
2019-01-17T19:34:26.125Z,98.85
2019-01-17T19:37:00.211Z,98.82
2019-01-17T19:39:30.355Z,98.76
2019-01-17T19:42:00.938Z,98.49
2019-01-17T19:44:31.156Z,98.21
2019-01-17T19:47:01.321Z,98.15
2019-01-17T19:49:31.301Z,98.12
2019-01-17T19:52:01.456Z,97.95
2019-01-17T19:54:31.645Z,97.74
2019-01-17T19:57:01.614Z,97.47
2019-01-17T19:59:34.270Z,97.65
2019-01-17T20:02:04.453Z,97.67
2019-01-17T20:04:34.556Z,97.96
2019-01-17T20:07:04.761Z,98.14
2019-01-17T20:09:34.905Z,98.13
2019-01-17T20:12:05.060Z,98.51
2019-01-17T20:14:35.250Z,98.08
2019-01-17T20:17:05.413Z,97.62
2019-01-17T20:19:35.500Z,97.64
2019-01-17T20:22:05.554Z,97.73
2019-01-17T20:24:36.082Z,97.83
2019-01-17T20:27:06.294Z,97.53
2019-01-17T20:29:36.407Z,96.83
2019-01-17T20:32:06.389Z,96.73
2019-01-17T20:34:38.759Z,95.59
2019-01-17T20:37:08.885Z,96.06
2019-01-17T20:39:38.745Z,96.23
2019-01-17T20:42:08.827Z,96.10
2019-01-17T20:44:38.894Z,95.98
2019-01-17T20:47:08.914Z,95.98
2019-01-17T20:49:39.147Z,96.00
2019-01-17T20:52:09.007Z,96.12
2019-01-17T20:54:39.157Z,96.92
2019-01-17T20:57:11.847Z,97.11
2019-01-17T20:59:42.067Z,96.88
2019-01-17T21:02:18.354Z,96.32
2019-01-17T21:04:48.377Z,95.87
2019-01-17T21:07:18.367Z,95.55
2019-01-17T21:09:48.247Z,95.85
2019-01-17T21:12:20.867Z,96.42
2019-01-17T21:14:50.838Z,96.54
2019-01-17T21:17:20.929Z,96.96
2019-01-17T21:19:50.588Z,97.33
2019-01-17T21:22:20.344Z,97.70
2019-01-17T21:24:50.038Z,98.15
2019-01-17T21:27:19.827Z,98.00
2019-01-17T21:29:49.537Z,98.83
2019-01-17T21:32:19.115Z,98.89
2019-01-17T21:34:48.638Z,99.14
2019-01-17T21:37:18.132Z,99.37
2019-01-17T21:39:47.916Z,99.81
2019-01-17T21:42:17.425Z,99.94
2019-01-17T21:44:47.166Z,99.73
2019-01-17T21:47:16.905Z,100.00
2019-01-17T21:49:46.674Z,100.00
2019-01-17T21:52:16.241Z,100.00
2019-01-17T21:54:45.881Z,100.00
2019-01-17T21:57:19.144Z,100.00
2019-01-17T21:59:48.806Z,100.00
2019-01-17T22:02:19.113Z,100.00
2019-01-17T22:04:48.747Z,100.00
2019-01-17T22:07:18.529Z,100.00
2019-01-17T22:09:48.232Z,100.00
2019-01-17T22:12:17.765Z,100.00
2019-01-17T22:14:47.407Z,100.00
2019-01-17T22:17:17.012Z,100.00
2019-01-17T22:19:46.661Z,100.00
2019-01-17T22:22:16.354Z,100.00
2019-01-17T22:24:45.983Z,100.00
2019-01-17T22:27:15.625Z,100.00
2019-01-17T22:29:45.389Z,100.00
2019-01-17T22:32:15.082Z,100.00
2019-01-17T22:34:44.615Z,100.00
2019-01-17T22:37:14.182Z,100.00
2019-01-17T22:39:43.700Z,100.00
2019-01-17T22:42:13.241Z,100.00
2019-01-17T22:44:42.921Z,100.00
2019-01-17T22:47:12.480Z,100.00
2019-01-17T22:49:42.101Z,100.00
2019-01-17T22:52:11.707Z,100.00
2019-01-17T22:54:41.445Z,100.00
2019-01-17T22:57:11.035Z,100.00
2019-01-17T22:59:40.569Z,100.00
2019-01-17T23:02:10.201Z,100.00
2019-01-17T23:04:39.769Z,100.00
2019-01-17T23:07:09.394Z,100.00
2019-01-17T23:09:38.997Z,100.00
2019-01-17T23:12:08.630Z,100.00
2019-01-17T23:14:38.261Z,100.00
2019-01-17T23:17:07.923Z,100.00
2019-01-17T23:19:37.892Z,100.00
2019-01-17T23:22:07.623Z,100.00
2019-01-17T23:24:37.221Z,100.00
2019-01-17T23:27:06.760Z,100.00
2019-01-17T23:29:36.387Z,100.00
2019-01-17T23:32:06.121Z,100.00
2019-01-17T23:34:35.726Z,100.00
2019-01-17T23:37:05.567Z,100.00
2019-01-17T23:39:35.252Z,100.00
2019-01-17T23:42:04.795Z,100.00
2019-01-17T23:44:34.436Z,100.00
2019-01-17T23:47:03.965Z,100.00
2019-01-17T23:49:33.621Z,100.00
2019-01-17T23:52:03.195Z,100.00
2019-01-17T23:54:32.775Z,100.00
2019-01-17T23:57:02.312Z,100.00
2019-01-17T23:59:31.936Z,100.00
